Time;durP1;ratioP1;P1;durP2;ratioP2;P2;SDS_P1;SDS_P2;PMS_P1;PMS_P2;Temp;Humidity;BMP_temperature;BMP_pressure;BME280_temperature;BME280_humidity;BME280_pressure;Samples;Min_cycle;Max_cycle;Signal;HPM_P1;HPM_P2
2024/04/11 00:00:13;;;;;;;1.80;1.00;;;22.50;59.60;;;;;;5403342;21;20497;-94
2024/04/11 00:02:41;;;;;;;2.20;1.03;;;22.40;59.60;;;;;;5366907;26;20457;-95
2024/04/11 00:05:07;;;;;;;2.13;0.90;;;22.40;59.60;;;;;;5366173;26;20493;-95
2024/04/11 00:10:11;;;;;;;1.80;1.10;;;22.40;59.60;;;;;;5379397;21;20245;-94
2024/04/11 00:12:40;;;;;;;1.60;0.90;;;22.50;59.70;;;;;;5434025;21;20496;-93
2024/04/11 00:15:11;;;;;;;1.90;1.13;;;22.40;59.50;;;;;;5401301;26;20451;-96
2024/04/11 00:20:25;;;;;;;1.70;1.10;;;22.40;59.50;;;;;;5400512;26;20464;-94
2024/04/11 00:23:02;;;;;;;2.13;1.20;;;22.40;59.60;;;;;;5401202;26;20496;-95
2024/04/11 00:25:31;;;;;;;2.20;1.00;;;22.40;59.60;;;;;;5400788;26;20543;-96
2024/04/11 00:30:28;;;;;;;2.00;1.17;;;22.40;59.60;;;;;;5403546;21;20496;-96
2024/04/11 00:32:59;;;;;;;2.23;1.10;;;22.40;59.60;;;;;;5401261;26;20221;-95
2024/04/11 00:37:57;;;;;;;1.60;1.00;;;22.40;59.60;;;;;;5324298;27;20482;-93
2024/04/11 00:40:26;;;;;;;2.13;1.10;;;22.40;59.60;;;;;;5327284;27;20455;-96
2024/04/11 00:42:59;;;;;;;2.57;1.17;;;22.40;59.60;;;;;;5326416;27;20438;-96
2024/04/11 00:45:42;;;;;;;1.60;0.93;;;22.40;59.60;;;;;;5326873;27;20462;-92
2024/04/11 00:48:12;;;;;;;2.30;1.10;;;22.40;59.60;;;;;;5327530;27;20418;-94
2024/04/11 00:50:41;;;;;;;1.67;0.80;;;22.40;59.60;;;;;;5327582;27;20455;-96
2024/04/11 00:53:12;;;;;;;2.33;1.33;;;22.40;59.70;;;;;;5325657;26;20451;-96
2024/04/11 00:55:39;;;;;;;1.80;0.93;;;22.40;59.60;;;;;;5326717;27;20442;-94
2024/04/11 00:58:08;;;;;;;1.83;1.10;;;22.40;59.60;;;;;;5341911;21;20861;-95
2024/04/11 01:00:37;;;;;;;2.23;1.00;;;22.40;59.60;;;;;;5395317;26;20456;-96
2024/04/11 01:03:06;;;;;;;1.80;1.00;;;22.30;59.60;;;;;;5395907;26;20537;-96
2024/04/11 01:05:33;;;;;;;1.90;1.10;;;22.40;59.60;;;;;;5396873;26;20502;-93
2024/04/11 01:08:07;;;;;;;1.80;0.80;;;22.50;59.70;;;;;;5404516;26;20524;-92
2024/04/11 01:10:34;;;;;;;1.80;0.97;;;22.40;59.60;;;;;;5405647;26;20436;-91
2024/04/11 01:13:04;;;;;;;1.57;0.90;;;22.40;59.60;;;;;;5405625;26;20447;-92
2024/04/11 01:15:30;;;;;;;1.83;0.90;;;22.40;59.60;;;;;;5404608;26;20495;-93
2024/04/11 01:20:43;;;;;;;1.87;0.90;;;22.50;59.80;;;;;;5404084;26;20447;-93
2024/04/11 01:23:13;;;;;;;1.60;0.90;;;22.40;59.60;;;;;;5397236;26;20467;-94
2024/04/11 01:25:44;;;;;;;1.80;1.10;;;22.30;59.60;;;;;;5365658;26;20511;-96
2024/04/11 01:28:10;;;;;;;2.00;1.00;;;22.30;59.60;;;;;;5395569;26;20452;-96
2024/04/11 01:30:38;;;;;;;2.37;1.10;;;22.40;59.60;;;;;;5395489;26;20498;-96
2024/04/11 01:33:10;;;;;;;2.07;1.20;;;22.30;59.60;;;;;;5393775;26;20490;-96
2024/04/11 01:35:41;;;;;;;2.63;1.37;;;22.30;59.60;;;;;;5397349;26;20491;-96
2024/04/11 01:38:08;;;;;;;1.70;0.97;;;22.30;59.60;;;;;;5400608;26;20494;-93
2024/04/11 01:40:47;;;;;;;1.80;1.10;;;22.30;59.60;;;;;;5401778;26;20543;-94
2024/04/11 01:43:21;;;;;;;1.60;1.00;;;22.30;59.60;;;;;;5400886;26;20448;-93
2024/04/11 01:45:50;;;;;;;2.10;1.10;;;22.30;59.60;;;;;;5407159;21;20539;-96
2024/04/11 01:48:16;;;;;;;1.90;1.03;;;22.30;59.60;;;;;;5406803;21;20544;-94
2024/04/11 01:53:26;;;;;;;1.70;1.00;;;22.30;59.70;;;;;;5363217;26;20270;-96
2024/04/11 01:55:54;;;;;;;2.80;1.23;;;22.40;59.70;;;;;;5389375;26;20443;-96
2024/04/11 02:01:09;;;;;;;1.73;0.97;;;22.40;59.70;;;;;;5401812;26;20447;-94
2024/04/11 02:03:37;;;;;;;1.50;0.90;;;22.30;59.60;;;;;;5404119;26;20436;-94
2024/04/11 02:06:07;;;;;;;1.77;0.80;;;22.30;59.60;;;;;;5375011;26;20435;-96
2024/04/11 02:08:33;;;;;;;1.80;1.10;;;22.30;59.60;;;;;;5407631;21;20534;-96
2024/04/11 02:11:32;;;;;;;1.50;0.90;;;22.30;59.60;;;;;;5418462;21;20523;-96
2024/04/11 02:14:00;;;;;;;1.60;0.80;;;22.30;59.60;;;;;;5401466;26;20447;-96
2024/04/11 02:16:34;;;;;;;1.70;1.10;;;22.40;59.80;;;;;;5400854;26;20448;-96
2024/04/11 02:19:00;;;;;;;1.77;0.90;;;22.30;59.70;;;;;;5400105;26;20475;-96
2024/04/11 02:21:29;;;;;;;1.90;0.97;;;22.40;59.70;;;;;;5399171;26;20447;-95
2024/04/11 02:23:56;;;;;;;1.90;1.00;;;22.40;59.70;;;;;;5398580;26;20471;-94
2024/04/11 02:26:25;;;;;;;1.63;0.87;;;22.30;59.60;;;;;;5397949;26;20511;-95
2024/04/11 02:28:53;;;;;;;1.60;1.00;;;22.30;59.60;;;;;;5398745;26;20452;-95
2024/04/11 02:31:22;;;;;;;2.20;1.00;;;22.30;59.60;;;;;;5400909;26;20447;-96
2024/04/11 02:33:48;;;;;;;1.60;1.00;;;22.40;59.60;;;;;;5396927;26;20443;-96
2024/04/11 02:36:18;;;;;;;1.90;0.90;;;22.30;59.60;;;;;;5399969;26;20495;-96
2024/04/11 02:38:44;;;;;;;2.27;1.00;;;22.30;59.60;;;;;;5398967;26;20447;-96
2024/04/11 02:41:12;;;;;;;1.70;1.00;;;22.20;60.10;;;;;;5397794;26;20526;-96
2024/04/11 02:43:39;;;;;;;1.77;1.17;;;22.30;59.60;;;;;;5396028;26;20440;-93
2024/04/11 02:46:15;;;;;;;1.70;0.90;;;22.40;59.60;;;;;;5396948;26;20447;-95
2024/04/11 02:48:42;;;;;;;1.70;1.10;;;22.40;59.70;;;;;;5404281;26;20448;-91
2024/04/11 02:51:11;;;;;;;2.43;0.90;;;22.20;59.50;;;;;;5405085;26;20526;-96
2024/04/11 02:53:38;;;;;;;2.17;0.90;;;22.30;59.60;;;;;;5395774;26;20506;-96
2024/04/11 02:56:09;;;;;;;1.80;0.90;;;22.20;59.50;;;;;;5364802;26;20515;-96
2024/04/11 02:58:35;;;;;;;1.83;1.20;;;22.20;59.50;;;;;;5395924;26;20447;-94
2024/04/11 03:01:06;;;;;;;2.20;0.93;;;22.30;59.60;;;;;;5395459;26;20440;-96
2024/04/11 03:03:37;;;;;;;1.43;0.80;;;22.20;59.50;;;;;;5396878;26;20495;-94
2024/04/11 03:06:10;;;;;;;2.00;1.00;;;22.30;59.50;;;;;;5367235;26;20456;-96
2024/04/11 03:08:36;;;;;;;2.10;1.00;;;22.20;59.50;;;;;;5397474;26;20443;-94
2024/04/11 03:11:05;;;;;;;2.10;0.93;;;22.20;59.50;;;;;;5395664;26;20444;-94
2024/04/11 03:13:33;;;;;;;2.30;0.90;;;22.20;59.50;;;;;;5395671;26;20548;-94
2024/04/11 03:16:03;;;;;;;1.87;1.13;;;22.20;59.50;;;;;;5395645;26;20549;-94
2024/04/11 03:18:29;;;;;;;2.23;0.90;;;22.20;59.50;;;;;;5395087;26;20934;-96
2024/04/11 03:21:01;;;;;;;1.70;1.00;;;22.20;59.50;;;;;;5394951;26;20516;-96
2024/04/11 03:23:28;;;;;;;1.70;1.10;;;22.20;59.50;;;;;;5394095;26;20480;-93
2024/04/11 03:25:58;;;;;;;1.83;0.90;;;22.30;59.60;;;;;;5393200;26;20593;-96
2024/04/11 03:28:24;;;;;;;2.10;1.30;;;22.20;59.50;;;;;;5392690;26;20591;-96
2024/04/11 03:30:56;;;;;;;1.70;1.03;;;22.20;59.50;;;;;;5393581;26;20497;-96
2024/04/11 03:33:22;;;;;;;1.60;1.00;;;22.20;59.50;;;;;;5393203;26;20451;-94
2024/04/11 03:36:00;;;;;;;1.87;1.00;;;22.20;59.50;;;;;;5392464;26;20447;-96
2024/04/11 03:38:28;;;;;;;2.43;1.00;;;22.10;59.40;;;;;;5393254;26;20502;-96
2024/04/11 03:41:02;;;;;;;1.80;0.97;;;22.20;59.50;;;;;;5393291;26;20525;-96
2024/04/11 03:43:31;;;;;;;1.90;0.90;;;22.20;59.50;;;;;;5394050;26;20816;-96
2024/04/11 03:46:07;;;;;;;1.60;1.10;;;22.20;59.40;;;;;;5393544;26;20484;-95
2024/04/11 03:48:36;;;;;;;1.93;1.10;;;22.10;59.30;;;;;;5393373;26;20554;-96
2024/04/11 03:51:29;;;;;;;1.67;0.90;;;22.20;59.50;;;;;;5391882;26;20455;-92
2024/04/11 03:53:58;;;;;;;2.40;1.30;;;22.20;59.50;;;;;;5391960;26;20512;-96
2024/04/11 03:56:28;;;;;;;2.13;0.80;;;22.20;59.40;;;;;;5391433;26;20436;-93
2024/04/11 03:58:56;;;;;;;1.90;1.13;;;22.20;59.40;;;;;;5392022;26;20455;-94
2024/04/11 04:01:26;;;;;;;1.50;0.80;;;22.20;59.40;;;;;;5394941;26;20556;-96
2024/04/11 04:03:53;;;;;;;2.03;0.90;;;22.20;59.40;;;;;;5401117;26;20439;-93
2024/04/11 04:06:22;;;;;;;1.80;1.00;;;22.30;59.50;;;;;;5402598;26;20448;-96
2024/04/11 04:08:52;;;;;;;1.50;0.90;;;22.20;59.40;;;;;;5401765;26;20480;-93
2024/04/11 04:11:36;;;;;;;1.97;0.90;;;22.30;59.50;;;;;;5403033;26;20428;-93
2024/04/11 04:14:22;;;;;;;1.70;0.90;;;22.30;59.40;;;;;;5506573;21;20644;-93
2024/04/11 04:16:55;;;;;;;1.90;1.00;;;22.20;59.40;;;;;;5402139;26;20501;-92
2024/04/11 04:19:22;;;;;;;1.70;1.03;;;22.10;59.40;;;;;;5400227;26;20444;-93
2024/04/11 04:22:16;;;;;;;1.73;1.00;;;22.30;59.50;;;;;;5405925;26;20504;-90
2024/04/11 04:25:08;;;;;;;1.67;0.83;;;22.20;59.40;;;;;;5369274;26;20461;-95
2024/04/11 04:27:37;;;;;;;2.23;1.00;;;22.20;59.40;;;;;;5366229;26;20509;-96
2024/04/11 04:30:09;;;;;;;1.87;0.87;;;22.20;59.40;;;;;;5335963;26;20488;-94
2024/04/11 04:32:38;;;;;;;1.77;1.00;;;22.20;59.40;;;;;;5367168;26;20525;-95
2024/04/11 04:35:09;;;;;;;1.70;0.90;;;22.30;59.40;;;;;;5366125;26;20437;-95
2024/04/11 04:37:51;;;;;;;1.70;0.90;;;22.20;59.40;;;;;;5365909;26;20505;-92
2024/04/11 04:40:22;;;;;;;1.50;0.77;;;22.20;59.40;;;;;;5367242;26;20543;-96
2024/04/11 04:42:50;;;;;;;1.60;1.00;;;22.20;59.40;;;;;;5364629;26;20504;-92
2024/04/11 04:45:16;;;;;;;1.60;0.93;;;22.20;59.40;;;;;;5364210;26;20489;-93
2024/04/11 04:47:45;;;;;;;1.50;0.80;;;22.20;59.40;;;;;;5366132;26;20434;-95
2024/04/11 04:50:12;;;;;;;1.60;0.90;;;22.10;59.30;;;;;;5390276;21;20265;-92
2024/04/11 04:52:43;;;;;;;2.10;1.30;;;22.20;59.40;;;;;;5402134;26;20463;-96
2024/04/11 04:57:47;;;;;;;2.07;1.07;;;22.10;59.30;;;;;;5330452;26;20531;-93
2024/04/11 05:00:13;;;;;;;2.27;0.97;;;22.20;59.40;;;;;;5366959;21;20458;-92
2024/04/11 05:02:45;;;;;;;1.63;0.80;;;22.10;59.30;;;;;;5403184;26;20523;-93
2024/04/11 05:05:15;;;;;;;2.10;0.80;;;22.10;59.20;;;;;;5401345;26;20459;-95
2024/04/11 05:07:44;;;;;;;2.10;1.10;;;22.10;59.90;;;;;;5402445;26;20504;-96
2024/04/11 05:10:10;;;;;;;2.00;0.93;;;22.10;59.30;;;;;;5402247;26;20444;-93
2024/04/11 05:15:29;;;;;;;2.07;0.90;;;22.10;59.30;;;;;;5400320;26;20233;-92
2024/04/11 05:17:56;;;;;;;1.70;0.70;;;22.20;59.30;;;;;;5400303;26;20451;-91
2024/04/11 05:20:27;;;;;;;1.70;0.90;;;22.20;59.30;;;;;;5400475;26;20515;-94
2024/04/11 05:23:17;;;;;;;2.27;1.00;;;22.10;59.20;;;;;;5401218;26;20503;-93
2024/04/11 05:25:50;;;;;;;2.03;0.90;;;22.10;59.20;;;;;;5407333;21;20500;-96
2024/04/11 05:28:17;;;;;;;1.70;0.83;;;22.20;59.40;;;;;;5400575;26;20954;-94
2024/04/11 05:34:06;;;;;;;1.70;1.00;;;22.10;59.20;;;;;;5400491;26;20448;-96
2024/04/11 05:36:34;;;;;;;1.50;0.90;;;22.20;59.90;;;;;;5404513;26;20495;-93
2024/04/11 05:39:03;;;;;;;1.70;0.87;;;22.10;59.20;;;;;;5401482;26;20459;-95
2024/04/11 05:41:29;;;;;;;1.60;1.10;;;22.10;59.20;;;;;;5402506;26;20495;-92
2024/04/11 05:44:01;;;;;;;1.60;1.10;;;22.10;59.20;;;;;;5402827;26;20435;-95
2024/04/11 05:51:38;;;;;;;1.57;0.90;;;22.10;59.80;;;;;;5327825;26;20474;-95
2024/04/11 05:54:04;;;;;;;2.17;1.00;;;22.10;59.20;;;;;;5293064;27;20554;-94
2024/04/11 05:56:34;;;;;;;1.77;1.13;;;22.10;59.20;;;;;;5288067;27;20452;-96
2024/04/11 05:59:00;;;;;;;1.70;0.90;;;22.10;59.20;;;;;;5287389;27;20492;-93
2024/04/11 06:01:33;;;;;;;2.10;0.90;;;22.10;59.20;;;;;;5287409;27;20456;-94
2024/04/11 06:04:01;;;;;;;1.70;0.90;;;22.10;59.20;;;;;;5287499;27;20213;-95
2024/04/11 06:06:29;;;;;;;2.23;1.20;;;22.10;59.20;;;;;;5286952;27;20463;-94
2024/04/11 06:09:00;;;;;;;1.60;0.90;;;22.10;59.20;;;;;;5296998;26;20440;-94
2024/04/11 06:11:29;;;;;;;1.97;0.90;;;22.10;59.20;;;;;;5304395;26;20470;-92
2024/04/11 06:13:55;;;;;;;1.97;1.00;;;22.20;59.30;;;;;;5304199;26;20432;-92
2024/04/11 06:16:24;;;;;;;2.07;1.03;;;22.20;59.30;;;;;;5300719;26;20533;-95
2024/04/11 06:18:54;;;;;;;1.80;0.90;;;22.10;59.30;;;;;;5291264;27;20448;-95
2024/04/11 06:21:32;;;;;;;1.60;0.90;;;22.10;59.20;;;;;;5287994;27;20460;-96
2024/04/11 06:24:00;;;;;;;1.60;0.90;;;22.10;59.20;;;;;;5286720;27;20539;-95
2024/04/11 06:26:30;;;;;;;1.60;0.90;;;22.10;59.20;;;;;;5286678;27;20456;-95
2024/04/11 06:28:56;;;;;;;1.80;1.10;;;22.10;59.20;;;;;;5286137;27;20444;-96
2024/04/11 06:31:28;;;;;;;2.00;0.97;;;22.20;59.30;;;;;;5285538;27;20497;-96
2024/04/11 06:33:54;;;;;;;1.70;1.00;;;22.10;59.20;;;;;;5285721;27;20451;-96
2024/04/11 06:36:23;;;;;;;1.90;1.00;;;22.20;59.30;;;;;;5286267;27;20476;-95
2024/04/11 06:38:51;;;;;;;1.97;1.00;;;22.10;59.20;;;;;;5285268;27;20500;-94
2024/04/11 06:41:22;;;;;;;1.70;0.90;;;22.20;59.30;;;;;;5287151;27;20492;-96
2024/04/11 06:43:49;;;;;;;1.97;0.83;;;22.10;59.20;;;;;;5288059;27;20519;-96
2024/04/11 06:46:35;;;;;;;1.40;0.80;;;22.10;59.20;;;;;;5287895;27;20548;-95
2024/04/11 06:49:02;;;;;;;1.50;0.80;;;22.10;59.20;;;;;;5288236;27;20468;-93
2024/04/11 06:51:34;;;;;;;1.67;0.90;;;22.10;59.30;;;;;;5288846;27;20518;-96
2024/04/11 06:54:00;;;;;;;1.60;0.83;;;22.10;59.20;;;;;;5287432;27;20524;-96
2024/04/11 06:56:31;;;;;;;1.60;0.90;;;22.10;59.20;;;;;;5286942;27;20448;-95
2024/04/11 06:58:57;;;;;;;2.43;1.00;;;22.10;59.20;;;;;;5287669;27;20504;-95
2024/04/11 07:01:26;;;;;;;1.70;1.00;;;22.20;59.40;;;;;;5288110;27;20455;-95
2024/04/11 07:03:53;;;;;;;1.60;1.00;;;22.10;59.20;;;;;;5289021;27;20491;-96
2024/04/11 07:06:24;;;;;;;1.80;0.90;;;22.00;59.10;;;;;;5287788;27;20563;-94
2024/04/11 07:08:52;;;;;;;1.97;0.87;;;22.10;59.20;;;;;;5287094;27;20448;-95
2024/04/11 07:11:27;;;;;;;1.40;0.77;;;22.10;59.20;;;;;;5287031;27;20555;-94
2024/04/11 07:13:58;;;;;;;2.07;1.10;;;22.10;59.30;;;;;;5287252;27;20452;-94
2024/04/11 07:16:30;;;;;;;1.77;0.90;;;22.20;59.30;;;;;;5258255;27;20464;-96
2024/04/11 07:18:58;;;;;;;1.80;1.00;;;22.10;59.20;;;;;;5287904;27;21018;-95
2024/04/11 07:21:30;;;;;;;2.27;1.00;;;22.00;59.20;;;;;;5291831;27;20542;-95
2024/04/11 07:23:58;;;;;;;1.60;0.80;;;22.10;59.20;;;;;;5300878;26;20456;-93
2024/04/11 07:26:29;;;;;;;1.60;0.90;;;22.10;59.20;;;;;;5303457;26;20429;-92
2024/04/11 07:28:59;;;;;;;2.37;1.00;;;22.10;59.20;;;;;;5294637;26;20487;-95
2024/04/11 07:31:28;;;;;;;2.37;1.03;;;22.10;59.20;;;;;;5286282;27;21003;-93
2024/04/11 07:33:55;;;;;;;1.70;0.70;;;22.20;59.30;;;;;;5284071;27;20856;-95
2024/04/11 07:36:25;;;;;;;1.53;0.80;;;22.10;59.20;;;;;;5283713;27;20452;-95
2024/04/11 07:38:57;;;;;;;1.70;1.00;;;22.00;59.20;;;;;;5292820;27;20492;-96
2024/04/11 07:41:28;;;;;;;1.50;0.80;;;22.10;59.20;;;;;;5288586;27;20495;-96
2024/04/11 07:43:57;;;;;;;1.50;0.80;;;22.10;59.30;;;;;;5286084;27;20939;-96
2024/04/11 07:46:28;;;;;;;1.63;0.90;;;22.10;59.20;;;;;;5285711;27;20500;-96
2024/04/11 07:48:56;;;;;;;1.60;0.90;;;22.10;59.30;;;;;;5285528;27;20448;-95
2024/04/11 07:51:27;;;;;;;2.00;1.13;;;22.10;59.30;;;;;;5286312;27;20564;-96
2024/04/11 07:53:53;;;;;;;2.73;0.97;;;22.00;59.20;;;;;;5286953;27;20609;-96
2024/04/11 07:56:25;;;;;;;1.80;0.80;;;22.00;59.20;;;;;;5285775;27;20463;-96
2024/04/11 07:58:55;;;;;;;1.70;0.80;;;22.10;59.30;;;;;;5285136;27;20531;-95
2024/04/11 08:01:30;;;;;;;2.00;0.90;;;22.00;59.30;;;;;;5285582;27;20507;-96
2024/04/11 08:03:57;;;;;;;2.43;0.70;;;21.90;59.10;;;;;;5286602;27;20523;-96
2024/04/11 08:06:26;;;;;;;2.37;0.87;;;22.00;59.20;;;;;;5286161;27;20503;-96
2024/04/11 08:08:52;;;;;;;1.80;0.83;;;22.00;59.20;;;;;;5286970;27;20448;-96
2024/04/11 08:11:21;;;;;;;1.83;0.90;;;22.10;59.30;;;;;;5286191;27;20456;-96
2024/04/11 08:13:47;;;;;;;1.60;0.87;;;22.10;59.30;;;;;;5285426;27;20500;-96
2024/04/11 08:16:16;;;;;;;2.17;0.97;;;22.00;59.10;;;;;;5284430;27;20535;-95
2024/04/11 08:18:47;;;;;;;1.50;0.70;;;22.00;59.20;;;;;;5286879;27;20497;-95
2024/04/11 08:21:16;;;;;;;1.63;0.80;;;22.10;59.90;;;;;;5286304;27;20456;-96
2024/04/11 08:23:43;;;;;;;2.90;0.90;;;22.10;59.30;;;;;;5285392;27;20792;-95
2024/04/11 08:26:12;;;;;;;1.50;0.77;;;22.10;59.30;;;;;;5285761;27;20500;-94
2024/04/11 08:28:39;;;;;;;1.70;1.00;;;22.00;59.20;;;;;;5285355;27;20496;-96
2024/04/11 08:31:08;;;;;;;1.70;0.87;;;22.00;59.20;;;;;;5285203;27;20444;-96
2024/04/11 08:33:48;;;;;;;2.40;0.90;;;22.20;59.50;;;;;;5289230;27;20553;-96
2024/04/11 08:36:18;;;;;;;1.60;0.90;;;22.00;59.30;;;;;;5284222;27;20601;-96
2024/04/11 08:38:47;;;;;;;1.57;0.80;;;22.10;59.30;;;;;;5287566;27;20494;-96
2024/04/11 08:41:16;;;;;;;1.50;0.80;;;22.00;59.30;;;;;;5290880;27;20520;-96
2024/04/11 08:43:45;;;;;;;2.00;1.00;;;22.00;59.30;;;;;;5285298;27;20947;-96
2024/04/11 08:46:14;;;;;;;2.07;1.00;;;21.90;59.30;;;;;;5284420;27;20493;-96
2024/04/11 08:48:40;;;;;;;2.33;1.13;;;22.00;59.30;;;;;;5285179;27;20455;-96
2024/04/11 08:51:19;;;;;;;1.70;0.80;;;22.00;59.30;;;;;;5285141;27;20467;-95
2024/04/11 08:53:46;;;;;;;1.60;0.80;;;22.00;59.40;;;;;;5291349;26;20496;-96
2024/04/11 08:56:17;;;;;;;1.97;0.90;;;22.10;59.40;;;;;;5293058;27;20459;-96
2024/04/11 08:58:44;;;;;;;2.30;0.87;;;22.00;59.30;;;;;;5288677;27;20444;-96
2024/04/11 09:01:14;;;;;;;2.43;1.20;;;22.00;59.30;;;;;;5284050;27;20448;-96
2024/04/11 09:03:41;;;;;;;1.60;0.80;;;22.00;59.40;;;;;;5285478;27;20440;-96
2024/04/11 09:06:14;;;;;;;1.70;0.90;;;22.00;59.40;;;;;;5285719;27;20511;-95
2024/04/11 09:08:40;;;;;;;2.00;0.97;;;22.00;59.40;;;;;;5285615;27;20508;-94
2024/04/11 09:11:14;;;;;;;1.70;1.00;;;22.00;59.40;;;;;;5288742;27;20512;-96
2024/04/11 09:13:43;;;;;;;1.67;1.10;;;22.00;59.40;;;;;;5288136;27;20440;-96
2024/04/11 09:16:11;;;;;;;2.43;0.80;;;22.00;59.40;;;;;;5288139;27;20452;-96
2024/04/11 09:18:39;;;;;;;1.90;1.00;;;22.00;59.40;;;;;;5288338;27;20563;-95
2024/04/11 09:21:06;;;;;;;1.63;0.90;;;22.00;60.00;;;;;;5289475;27;20444;-95
2024/04/11 09:23:49;;;;;;;1.93;1.00;;;22.00;59.40;;;;;;5288408;27;20468;-96
2024/04/11 09:26:14;;;;;;;1.50;0.90;;;22.00;59.50;;;;;;5287855;27;20450;-96
2024/04/11 09:28:43;;;;;;;1.93;0.83;;;22.00;59.50;;;;;;5286962;27;20455;-96
2024/04/11 09:31:11;;;;;;;3.50;0.80;;;22.10;59.50;;;;;;5286828;27;20460;-96
2024/04/11 09:33:42;;;;;;;1.67;0.70;;;22.00;59.50;;;;;;5287472;27;20943;-96
2024/04/11 09:36:10;;;;;;;2.17;0.90;;;22.00;59.50;;;;;;5288235;27;20999;-96
2024/04/11 09:38:44;;;;;;;1.60;0.90;;;22.00;59.40;;;;;;5286490;27;20460;-96
2024/04/11 09:41:12;;;;;;;1.60;0.80;;;22.00;59.50;;;;;;5287372;27;20488;-96
2024/04/11 09:43:41;;;;;;;2.00;1.00;;;22.00;59.50;;;;;;5287223;27;20516;-96
2024/04/11 09:46:08;;;;;;;1.50;0.90;;;22.00;59.50;;;;;;5286719;27;20444;-96
2024/04/11 09:48:38;;;;;;;1.80;0.87;;;22.00;59.50;;;;;;5286762;27;20440;-96
2024/04/11 09:51:09;;;;;;;2.10;1.07;;;22.00;59.50;;;;;;5287011;27;20520;-96
2024/04/11 09:53:43;;;;;;;2.47;1.10;;;22.00;59.50;;;;;;5285930;27;20512;-96
2024/04/11 09:56:17;;;;;;;1.50;0.80;;;22.00;59.60;;;;;;5287382;27;20460;-96
2024/04/11 09:58:51;;;;;;;1.60;0.80;;;22.00;59.60;;;;;;5286113;27;20840;-96
2024/04/11 10:01:29;;;;;;;1.80;0.93;;;22.00;59.50;;;;;;5286813;27;20576;-95
2024/04/11 10:04:04;;;;;;;2.73;1.00;;;22.00;59.50;;;;;;5288110;27;20528;-96
2024/04/11 10:06:35;;;;;;;1.70;0.90;;;22.00;59.60;;;;;;5287999;27;20451;-96
2024/04/11 10:09:21;;;;;;;1.60;1.10;;;22.00;59.50;;;;;;5287979;27;20459;-96
2024/04/11 10:11:51;;;;;;;1.53;0.83;;;22.10;59.60;;;;;;5288173;27;20494;-96
2024/04/11 10:14:21;;;;;;;1.53;0.90;;;22.00;59.60;;;;;;5287964;27;20571;-96
2024/04/11 10:16:48;;;;;;;1.73;0.97;;;22.10;59.70;;;;;;5288009;27;20444;-96
2024/04/11 10:19:26;;;;;;;1.97;0.93;;;22.10;59.70;;;;;;5286574;27;20452;-96
2024/04/11 10:21:55;;;;;;;1.60;1.00;;;22.00;59.60;;;;;;5290496;27;20520;-95
2024/04/11 10:24:37;;;;;;;2.20;1.07;;;22.00;59.60;;;;;;5291610;27;20459;-96
2024/04/11 10:27:11;;;;;;;1.50;0.80;;;22.00;59.60;;;;;;5300373;26;20440;-95
2024/04/11 10:29:43;;;;;;;1.70;1.07;;;21.90;59.50;;;;;;5304110;26;20504;-94
2024/04/11 10:32:14;;;;;;;3.00;0.90;;;22.00;59.70;;;;;;5297681;26;20440;-96
2024/04/11 10:34:47;;;;;;;1.80;0.90;;;21.90;59.60;;;;;;5290428;27;20975;-96
2024/04/11 10:37:17;;;;;;;1.80;0.90;;;22.10;59.80;;;;;;5289194;27;20878;-96
2024/04/11 10:39:54;;;;;;;1.50;0.90;;;22.00;59.70;;;;;;5287563;27;20503;-95
2024/04/11 10:42:27;;;;;;;1.97;0.70;;;22.00;59.70;;;;;;5284523;27;20489;-95
2024/04/11 10:44:59;;;;;;;1.97;0.80;;;22.00;59.70;;;;;;5287118;27;20578;-95
2024/04/11 10:47:26;;;;;;;1.87;0.87;;;22.00;59.70;;;;;;5286179;27;20577;-95
2024/04/11 10:49:55;;;;;;;1.60;0.83;;;22.00;59.70;;;;;;5285376;27;20487;-95
2024/04/11 10:52:24;;;;;;;1.50;0.70;;;22.00;59.70;;;;;;5285708;27;20785;-96
2024/04/11 10:55:12;;;;;;;1.90;0.90;;;22.00;59.70;;;;;;5285020;27;20468;-94
2024/04/11 10:57:40;;;;;;;1.97;1.00;;;22.00;59.80;;;;;;5286464;27;20444;-95
2024/04/11 11:00:21;;;;;;;3.40;1.30;;;22.00;59.80;;;;;;5285649;27;20444;-95
2024/04/11 11:05:45;;;;;;;2.73;0.90;;;22.10;59.90;;;;;;5302236;26;20432;-93
2024/04/11 11:08:13;;;;;;;1.80;0.90;;;22.10;59.90;;;;;;5302907;26;20435;-94
2024/04/11 11:10:44;;;;;;;1.97;0.97;;;22.00;59.80;;;;;;5299658;26;20543;-95
2024/04/11 11:13:12;;;;;;;2.73;1.17;;;22.00;59.90;;;;;;5294650;27;20440;-96
2024/04/11 11:15:43;;;;;;;1.70;0.90;;;22.10;59.90;;;;;;5292379;27;20572;-96
2024/04/11 11:18:12;;;;;;;1.70;0.90;;;22.10;59.90;;;;;;5290436;27;20507;-96
2024/04/11 11:20:44;;;;;;;1.70;0.80;;;22.00;59.90;;;;;;5260465;27;20452;-95
2024/04/11 11:23:13;;;;;;;1.60;0.90;;;22.10;60.00;;;;;;5289222;27;20476;-96
2024/04/11 11:25:50;;;;;;;1.83;0.90;;;22.00;59.90;;;;;;5290864;27;20460;-96
2024/04/11 11:28:17;;;;;;;1.70;0.90;;;22.00;59.90;;;;;;5288857;27;20463;-96
2024/04/11 11:30:48;;;;;;;1.60;0.90;;;22.00;59.90;;;;;;5289035;27;20508;-95
2024/04/11 11:33:17;;;;;;;1.93;0.70;;;22.00;59.90;;;;;;5288902;27;20456;-96
2024/04/11 11:35:48;;;;;;;1.60;1.00;;;22.00;59.90;;;;;;5289726;27;20448;-96
2024/04/11 11:38:15;;;;;;;1.70;0.80;;;22.00;59.90;;;;;;5289263;27;20444;-94
2024/04/11 11:40:53;;;;;;;1.50;0.70;;;22.00;60.00;;;;;;5289689;27;20493;-96
2024/04/11 11:43:22;;;;;;;1.70;0.80;;;22.10;60.00;;;;;;5288828;27;20492;-95
2024/04/11 11:49:18;;;;;;;1.70;1.00;;;22.00;60.00;;;;;;5288928;27;20510;-95
2024/04/11 11:51:47;;;;;;;1.50;0.73;;;22.00;60.00;;;;;;5259828;27;20484;-96
2024/04/11 11:54:17;;;;;;;1.83;0.90;;;22.10;60.10;;;;;;5288663;27;20471;-95
2024/04/11 11:56:46;;;;;;;1.60;0.80;;;21.90;59.90;;;;;;5291452;26;20444;-92
2024/04/11 11:59:19;;;;;;;1.50;0.80;;;22.00;60.00;;;;;;5292249;27;20449;-96
2024/04/11 12:01:51;;;;;;;1.90;0.87;;;22.00;60.00;;;;;;5289227;27;20509;-94
2024/04/11 12:04:20;;;;;;;1.50;0.80;;;22.00;60.00;;;;;;5286142;27;20544;-96
2024/04/11 12:06:48;;;;;;;1.70;0.90;;;22.00;60.00;;;;;;5288013;27;20995;-96
2024/04/11 12:09:31;;;;;;;1.60;0.90;;;22.10;60.10;;;;;;5289137;27;20444;-96
2024/04/11 12:12:20;;;;;;;1.47;0.70;;;22.00;60.00;;;;;;5256611;27;20452;-96
2024/04/11 12:14:54;;;;;;;1.60;0.80;;;22.10;60.10;;;;;;5283776;27;20508;-95
2024/04/11 12:17:23;;;;;;;1.60;0.80;;;22.00;60.00;;;;;;5284572;27;20509;-95
2024/04/11 12:19:53;;;;;;;1.50;0.80;;;22.00;60.10;;;;;;5284822;27;20460;-96
2024/04/11 12:22:19;;;;;;;1.60;0.90;;;22.00;60.10;;;;;;5284529;27;20460;-96
2024/04/11 12:24:50;;;;;;;1.70;0.80;;;22.00;60.10;;;;;;5283451;27;20452;-96
2024/04/11 12:27:23;;;;;;;1.63;0.80;;;22.00;60.10;;;;;;5284141;27;20546;-94
2024/04/11 12:29:52;;;;;;;1.60;0.97;;;22.00;60.10;;;;;;5284321;27;20467;-96
2024/04/11 12:32:18;;;;;;;1.60;0.90;;;22.00;60.10;;;;;;5287572;27;20440;-96
2024/04/11 12:34:55;;;;;;;2.10;0.93;;;22.00;60.10;;;;;;5291301;26;20464;-96
2024/04/11 12:37:27;;;;;;;1.50;0.90;;;22.00;60.10;;;;;;5288620;27;20448;-94
2024/04/11 12:42:29;;;;;;;1.70;0.93;;;22.00;60.20;;;;;;5409340;21;20592;-96
2024/04/11 12:44:58;;;;;;;2.43;1.13;;;22.10;60.30;;;;;;5390639;26;20248;-96
2024/04/11 12:47:38;;;;;;;1.60;0.90;;;22.10;60.30;;;;;;5391648;26;20486;-96
2024/04/11 12:50:12;;;;;;;2.23;1.00;;;22.00;60.20;;;;;;5390336;26;20572;-96
2024/04/11 12:52:44;;;;;;;1.70;0.80;;;22.00;60.20;;;;;;5390758;26;20791;-96
2024/04/11 12:55:11;;;;;;;1.50;0.80;;;21.90;60.20;;;;;;5391144;26;20451;-96
2024/04/11 12:58:07;;;;;;;2.23;1.10;;;22.00;60.20;;;;;;5389513;26;20515;-96
2024/04/11 13:00:35;;;;;;;1.70;0.80;;;22.00;60.30;;;;;;5391581;26;20504;-96
2024/04/11 13:03:15;;;;;;;1.50;0.70;;;22.10;60.40;;;;;;5400406;21;20574;-94
2024/04/11 13:05:51;;;;;;;2.27;0.80;;;21.90;60.20;;;;;;5392514;26;20494;-96
2024/04/11 13:08:20;;;;;;;1.60;0.80;;;22.00;60.30;;;;;;5392976;26;20439;-94
2024/04/11 13:10:49;;;;;;;1.93;1.00;;;22.00;60.30;;;;;;5393343;26;20478;-96
2024/04/11 13:13:23;;;;;;;2.33;0.90;;;22.00;60.40;;;;;;5390585;26;21002;-96
2024/04/11 13:15:49;;;;;;;1.93;0.90;;;21.90;60.30;;;;;;5390610;26;20436;-94
2024/04/11 13:18:28;;;;;;;1.40;0.70;;;22.10;60.50;;;;;;5389524;26;20443;-96
2024/04/11 13:20:57;;;;;;;1.57;0.80;;;21.90;60.30;;;;;;5390403;26;20729;-96
2024/04/11 13:23:29;;;;;;;1.57;0.70;;;22.10;60.60;;;;;;5388954;26;20514;-95
2024/04/11 13:25:58;;;;;;;1.60;0.90;;;22.00;60.50;;;;;;5389224;26;20797;-96
2024/04/11 13:28:31;;;;;;;1.80;0.93;;;21.90;60.30;;;;;;5390812;26;20496;-96
2024/04/11 13:30:57;;;;;;;1.70;0.90;;;22.00;60.50;;;;;;5400993;26;20498;-93
2024/04/11 13:33:30;;;;;;;1.67;1.13;;;22.00;60.50;;;;;;5405242;26;20428;-93
2024/04/11 13:38:34;;;;;;;1.60;0.70;;;22.00;60.40;;;;;;5439091;21;20495;-96
2024/04/11 13:41:16;;;;;;;1.60;0.90;;;22.00;60.50;;;;;;5363540;26;20230;-96
2024/04/11 13:43:47;;;;;;;2.00;1.10;;;22.00;60.40;;;;;;5389143;26;21003;-96
2024/04/11 13:46:18;;;;;;;1.70;0.80;;;21.90;60.40;;;;;;5384485;26;20492;-96
2024/04/11 13:48:47;;;;;;;1.50;0.80;;;22.00;60.50;;;;;;5385208;26;20440;-94